Date,TemperatureHighF,TemperatureAvgF,TemperatureLowF,DewpointHighF,DewpointAvgF,DewpointLowF,HumidityHigh,HumidityAvg,HumidityLow,PressureMaxIn,PressureMinIn,WindSpeedMaxMPH,WindSpeedAvgMPH,GustSpeedMaxMPH,PrecipitationSumIn
2013-1-1,58.7,51.6,42.3,57.8,48.3,39.0,97,89,70,30.23,29.94,17,3,17,0.25
2013-1-2,45.4,41.2,37.5,38.6,32.0,29.2,87,70,57,30.33,30.21,13,1,13,0.00
2013-1-3,47.2,41.9,38.3,33.5,31.8,30.0,80,67,55,30.46,30.32,12,2,12,0.00
2013-1-4,43.4,40.7,37.8,39.7,37.0,32.6,92,87,66,30.52,30.39,12,1,12,0.13
2013-1-5,57.5,44.5,36.3,44.8,39.6,34.2,93,84,62,30.40,30.24,6,0,6,0.03
2013-1-6,63.5,46.9,34.8,39.1,33.9,31.2,95,66,32,30.40,30.28,14,1,14,0.01
2013-1-7,57.5,47.0,35.2,46.4,37.0,29.1,84,69,52,30.33,30.05,12,1,12,0.00
2013-1-8,56.1,51.5,47.8,55.3,50.3,46.4,97,95,85,30.05,29.82,15,3,15,0.47
2013-1-9,66.1,57.3,50.6,58.9,55.2,48.9,97,93,76,30.02,29.82,14,2,22,1.84
2013-1-10,69.2,55.0,44.5,49.4,45.7,40.9,97,74,43,30.05,29.97,24,2,24,0.01
2013-1-11,70.7,58.9,43.7,66.1,55.0,40.9,97,87,72,30.03,29.81,14,1,14,0.00
2013-1-12,74.0,68.3,53.3,68.3,63.3,41.8,95,85,58,29.82,29.63,19,1,19,0.01
2013-1-13,58.4,48.3,39.9,42.1,33.3,27.6,66,57,39,30.17,29.81,22,4,22,0.00
2013-1-14,53.2,42.7,35.9,34.3,30.1,24.7,71,61,47,30.24,30.10,14,3,17,0.00
2013-1-15,42.5,38.2,35.6,36.2,33.5,25.7,93,83,67,30.27,30.10,18,3,18,0.02
2013-1-16,57.4,41.0,27.1,25.8,21.6,15.5,76,50,20,30.37,30.21,23,2,23,0.00
2013-1-17,70.0,50.7,34.3,38.3,32.8,23.0,75,54,28,30.48,30.31,14,1,14,0.00
2013-1-18,66.6,50.5,36.2,39.0,35.0,30.9,84,58,31,30.51,30.32,11,0,11,0.00
2013-1-19,70.9,52.7,36.9,49.3,41.9,35.0,96,70,39,30.33,30.15,14,0,14,0.00
2013-1-20,73.2,55.5,41.9,56.1,46.9,39.3,96,75,44,30.26,30.09,11,0,11,0.00
2013-1-21,76.8,58.2,45.1,56.9,48.9,42.7,95,74,41,30.23,30.12,9,0,9,0.00
2013-1-22,74.6,60.1,49.5,53.3,48.0,42.9,82,66,45,30.30,30.18,14,1,14,0.00
2013-1-23,76.8,61.0,47.0,59.9,53.5,43.7,97,78,52,30.33,30.19,8,0,13,0.00
2013-1-24,81.3,66.0,57.2,64.5,60.0,55.5,97,83,53,30.25,30.09,13,1,13,0.00
2013-1-25,81.0,68.4,60.2,64.1,61.4,57.9,95,80,53,30.14,29.99,12,1,12,0.00
2013-1-26,74.0,62.5,54.2,62.5,56.7,51.2,95,82,64,30.14,30.01,9,1,9,0.01
2013-1-27,78.4,67.5,58.4,66.4,62.7,57.0,97,85,64,30.08,29.92,19,2,19,0.00
2013-1-28,75.2,71.2,68.3,67.6,66.5,65.6,93,85,74,30.02,29.84,18,2,18,0.01
2013-1-29,85.9,71.6,57.7,67.8,57.5,27.3,90,65,30,29.85,29.47,37,4,37,0.00
2013-1-30,62.7,52.1,37.4,29.7,21.7,14.2,56,32,16,30.24,29.79,30,6,30,0.00
2013-1-31,70.0,49.2,33.7,31.4,23.3,20.0,68,40,17,30.32,30.18,13,1,15,0.00
2013-2-1,73.2,57.2,43.2,47.2,39.1,30.8,83,54,28,30.34,30.17,16,1,16,0.00
2013-2-2,78.2,59.5,44.2,57.0,48.0,39.1,93,68,40,30.26,30.15,11,0,11,0.00
2013-2-3,73.7,61.9,52.4,54.4,44.9,38.0,85,55,34,30.32,30.01,13,1,13,0.00
2013-2-4,79.1,64.5,55.2,61.0,57.0,51.0,93,78,49,30.01,29.78,9,1,14,0.00
2013-2-5,86.1,67.2,50.9,55.4,47.4,37.4,96,57,19,29.97,29.85,10,0,10,0.02
2013-2-6,76.7,64.9,59.3,62.4,58.5,52.3,94,81,57,29.97,29.81,11,0,11,0.05
2013-2-7,80.1,66.4,59.2,63.6,57.7,43.2,95,76,42,30.04,29.84,15,1,15,0.00
2013-2-8,73.3,60.8,48.0,49.2,39.5,32.2,77,49,23,30.21,30.04,17,3,17,0.00
2013-2-9,68.8,59.6,52.7,66.8,56.3,39.0,97,89,55,30.08,29.78,15,1,15,0.05
2013-2-10,69.1,65.1,58.5,66.9,47.6,34.1,96,58,28,30.00,29.74,10,1,16,0.06
2013-2-11,60.5,55.7,51.2,50.5,46.1,38.7,94,71,49,30.04,29.93,15,4,15,0.04
2013-2-12,76.8,60.5,51.2,58.3,45.7,26.1,97,66,23,30.04,29.80,21,2,21,0.02
2013-2-13,69.6,53.1,39.5,37.5,33.3,28.9,78,50,25,30.15,30.00,21,1,21,0.00
2013-2-14,71.3,53.1,36.0,42.1,37.5,31.5,88,60,32,30.14,30.00,15,0,15,0.00
2013-2-15,72.0,53.4,40.4,48.1,38.8,26.9,91,62,29,30.38,30.07,17,2,17,0.00
2013-2-16,67.7,50.5,33.3,32.3,27.7,23.4,69,44,24,30.47,30.23,10,0,10,0.00
2013-2-17,71.2,55.5,36.0,53.6,39.9,29.0,79,58,33,30.23,29.99,23,3,23,0.00
2013-2-18,82.5,67.9,59.1,62.0,51.7,29.2,86,60,27,30.04,29.82,19,2,19,0.00
2013-2-19,69.4,58.4,45.8,36.0,33.1,28.7,63,40,24,30.23,30.04,16,3,16,0.00
2013-2-20,68.9,59.8,52.9,65.5,52.6,29.8,94,79,34,30.10,29.64,20,3,20,0.02
2013-2-21,81.3,70.2,58.4,67.4,45.3,23.5,91,51,13,29.82,29.56,26,3,26,0.00
2013-2-22,65.4,55.8,48.8,41.3,35.2,24.1,70,47,26,30.01,29.82,19,2,19,0.00
2013-2-23,75.4,57.1,42.6,43.3,36.6,29.5,66,48,29,30.05,29.84,11,0,11,0.00
2013-2-24,68.9,57.7,40.0,59.3,49.6,35.3,93,75,60,29.91,29.58,17,1,17,0.00
2013-2-25,66.7,58.2,46.8,60.2,36.6,17.7,96,51,16,29.87,29.56,46,9,46,0.00
2013-2-26,69.0,53.2,37.5,32.4,28.9,25.6,68,42,22,29.97,29.85,21,1,21,0.00
2013-2-27,68.3,53.9,42.4,36.1,30.8,25.1,73,43,22,30.22,29.87,27,2,27,0.00
2013-2-28,65.2,50.1,41.2,31.2,27.2,23.1,60,42,23,30.34,30.19,12,1,17,0.00
2013-3-1,73.5,52.2,35.3,31.7,25.6,13.7,71,41,14,30.29,30.10,18,0,18,0.00
2013-3-2,68.5,52.1,37.3,31.5,28.5,25.7,67,43,22,30.43,30.25,19,2,19,0.00
2013-3-3,77.3,56.4,35.6,44.1,34.1,25.4,69,46,21,30.27,29.95,18,2,18,0.00
2013-3-4,88.6,67.0,46.9,56.3,48.5,41.3,93,57,23,29.95,29.69,15,1,15,0.00
2013-3-5,70.6,58.3,41.6,56.0,31.4,15.9,93,42,16,30.35,29.76,30,4,30,0.00
2013-3-6,66.8,50.5,34.6,25.9,21.0,15.3,52,33,15,30.44,30.22,13,0,13,0.00
2013-3-7,74.2,56.9,39.3,55.5,45.8,24.6,91,68,41,30.24,30.08,15,1,15,0.00
2013-3-8,68.9,63.2,60.2,64.6,59.3,53.8,94,87,77,30.12,29.96,21,1,21,0.02
2013-3-9,75.9,67.3,62.8,67.7,63.6,59.5,96,88,73,30.00,29.61,21,1,21,0.06
2013-3-10,71.0,62.7,49.1,63.9,43.6,32.8,96,54,27,30.12,29.61,25,2,25,0.60
2013-3-11,73.5,54.8,37.9,35.0,30.7,25.6,78,45,19,30.19,29.99,18,1,18,0.00
2013-3-12,81.7,59.2,37.7,42.7,33.3,26.9,83,43,17,30.20,30.06,13,1,14,0.00
2013-3-13,78.5,62.3,46.1,48.8,41.6,37.2,86,51,25,30.42,30.20,12,0,12,0.00
2013-3-14,80.5,64.5,44.3,55.7,47.3,37.1,92,57,29,30.38,30.20,14,1,14,0.00
2013-3-15,82.0,65.6,48.7,57.8,50.2,42.6,96,64,26,30.24,29.97,18,1,18,0.00
2013-3-16,85.8,68.0,51.6,62.3,56.7,49.7,96,71,33,30.00,29.72,21,2,21,0.00
2013-3-17,89.3,73.3,65.4,65.4,62.1,58.2,87,71,39,29.80,29.61,16,1,16,0.00
2013-3-18,99.0,76.1,62.4,67.9,55.3,34.9,96,60,11,29.89,29.68,17,1,17,0.00
2013-3-19,81.4,68.7,53.9,66.0,56.4,45.9,81,65,54,29.96,29.79,16,1,16,0.00
2013-3-20,74.8,64.4,56.4,63.8,49.4,38.6,85,61,32,30.20,29.92,25,2,25,0.00
2013-3-21,75.3,64.6,51.8,61.3,53.1,42.2,86,67,56,30.01,29.61,11,2,18,0.00
2013-3-22,90.3,73.1,64.5,68.4,64.2,53.2,96,77,41,29.71,29.58,16,1,16,0.01
2013-3-23,85.9,67.0,55.9,64.7,56.3,50.2,88,70,47,29.75,29.55,15,1,15,0.00
2013-3-24,66.5,56.4,45.9,59.1,33.9,22.6,88,47,21,30.15,29.67,30,5,30,0.00
2013-3-25,63.6,49.7,37.7,26.7,21.8,13.9,58,37,16,30.39,30.15,16,1,16,0.00
2013-3-26,69.2,53.3,37.7,28.5,23.3,19.4,57,33,16,30.49,30.28,8,0,10,0.00
2013-3-27,69.5,55.3,37.5,50.4,40.0,27.6,77,58,42,30.33,30.15,12,0,13,0.00
2013-3-28,71.1,64.0,58.0,59.8,56.0,50.4,85,76,65,30.20,30.10,16,1,16,0.00
2013-3-29,78.8,67.9,56.6,61.5,57.9,54.6,96,73,48,30.16,30.02,16,1,16,0.00
2013-3-30,85.9,72.6,64.6,65.5,62.5,59.8,90,73,45,30.09,29.86,10,1,16,0.00
2013-3-31,85.0,70.3,63.2,66.5,63.5,59.0,93,80,49,29.93,29.79,11,1,19,0.05
2013-4-1,87.6,72.5,64.0,68.1,63.1,60.8,93,75,42,30.02,29.85,8,0,12,0.00
2013-4-2,79.1,70.0,57.3,67.1,64.0,53.6,95,82,64,30.01,29.77,34,2,38,1.41
2013-4-3,58.0,54.2,49.9,56.6,51.7,46.2,95,91,86,30.13,29.71,22,3,22,0.85
2013-4-4,69.7,56.3,47.2,48.1,45.2,42.5,88,68,43,30.22,30.08,12,1,13,0.00
2013-4-5,75.3,57.1,39.8,51.3,45.4,37.6,95,68,41,30.27,30.06,10,0,10,0.00
2013-4-6,82.5,66.2,51.0,59.7,55.1,46.9,93,70,44,30.08,29.83,11,1,18,0.00
2013-4-7,85.7,69.8,60.5,66.3,61.7,57.4,93,77,49,29.90,29.73,17,1,19,0.00
2013-4-8,76.2,70.3,66.8,67.5,65.3,62.0,92,84,74,29.81,29.64,17,1,17,0.00
2013-4-9,89.5,76.2,70.0,71.9,68.1,65.6,90,77,51,29.69,29.53,16,1,18,0.00
2013-4-10,74.2,61.4,48.0,69.4,54.9,43.7,93,79,62,29.90,29.59,16,4,27,0.20
2013-4-11,72.8,57.5,45.6,45.7,42.1,36.4,81,59,36,29.98,29.78,15,0,15,0.01
2013-4-12,83.0,63.8,45.3,52.4,45.3,41.0,89,56,26,30.00,29.82,12,0,13,0.00
2013-4-13,79.5,65.7,51.1,60.5,53.5,45.5,96,68,42,29.94,29.73,14,0,14,0.00
2013-4-14,89.8,71.0,55.4,68.5,61.5,53.1,95,75,42,29.81,29.58,16,1,16,0.00
2013-4-15,91.8,77.7,68.5,68.9,66.2,60.2,92,70,39,29.77,29.65,14,2,14,0.00
2013-4-16,86.3,75.9,65.3,71.0,67.4,61.9,94,76,56,29.85,29.74,17,2,17,0.00
2013-4-17,81.4,75.5,72.3,72.0,70.9,69.4,95,86,69,29.84,29.61,18,1,18,0.01
2013-4-18,75.5,65.2,53.0,71.3,55.4,37.4,92,72,42,30.04,29.60,25,3,25,0.46
2013-4-19,74.3,58.7,44.6,38.2,32.6,27.0,72,41,19,30.29,30.04,26,2,26,0.00
2013-4-20,75.7,58.5,38.3,48.2,35.8,30.5,82,48,20,30.22,29.97,15,1,15,0.00
2013-4-21,82.3,66.0,51.0,59.1,53.5,46.7,88,67,41,30.12,29.96,17,1,17,0.00
2013-4-22,85.7,70.8,58.9,63.6,60.0,56.6,95,72,43,30.09,29.83,15,1,15,0.00
2013-4-23,80.7,69.7,56.0,68.3,61.2,45.2,89,75,53,30.03,29.82,17,1,17,0.00
2013-4-24,63.8,55.3,46.5,45.5,40.2,36.8,81,58,41,30.24,30.03,23,4,23,0.01
2013-4-25,71.5,62.1,56.8,51.8,45.3,41.0,66,54,40,30.31,30.16,15,1,15,0.00
2013-4-26,78.3,69.0,59.6,70.7,63.3,49.3,96,83,63,30.18,29.99,14,1,14,0.00
2013-4-27,85.5,73.0,66.1,70.4,67.7,64.1,95,84,59,30.06,29.88,16,0,16,0.35
2013-4-28,84.4,71.7,59.0,66.4,63.2,57.5,98,77,51,29.99,29.83,15,0,15,0.01
2013-4-29,88.0,72.6,66.1,67.7,65.2,61.6,96,80,43,29.90,29.72,11,0,18,0.12
2013-4-30,85.4,71.4,63.9,68.9,65.4,62.5,97,83,54,29.81,29.68,6,0,10,0.00
2013-5-1,88.2,76.6,67.4,70.4,67.5,65.0,94,75,52,29.88,29.75,12,0,12,0.00
2013-5-2,76.5,58.9,50.0,69.3,50.6,37.6,94,74,60,30.33,29.78,39,8,39,0.85
2013-5-3,72.2,57.4,45.6,38.2,34.0,29.8,67,44,22,30.35,30.08,24,4,24,0.00
2013-5-4,82.7,62.5,42.1,43.2,38.6,34.5,78,47,19,30.10,29.86,15,1,15,0.00
2013-5-5,84.1,67.0,51.1,48.2,44.2,39.0,73,47,24,30.12,29.96,13,1,13,0.00
2013-5-6,78.3,65.0,49.3,53.0,49.3,44.0,83,59,38,30.13,29.97,10,0,10,0.00
2013-5-7,86.3,69.9,52.3,61.2,54.0,48.8,90,61,30,30.07,29.89,11,0,11,0.00
2013-5-8,85.0,72.5,62.5,66.4,63.2,58.5,92,74,49,29.99,29.84,14,1,14,0.00
2013-5-9,80.5,73.7,64.0,72.6,68.2,60.9,91,83,76,29.94,29.79,25,1,25,0.13
2013-5-10,86.3,71.2,61.6,69.6,63.6,59.3,96,79,53,29.98,29.79,32,1,32,0.32
2013-5-11,84.6,73.0,63.1,64.1,59.8,52.9,91,66,44,30.12,29.95,16,2,16,0.00
2013-5-12,84.0,71.4,60.7,57.0,52.5,49.1,66,52,36,30.22,30.08,14,1,14,0.00
2013-5-13,86.1,72.4,53.4,60.9,54.1,47.0,82,55,33,30.25,30.11,13,0,13,0.00
2013-5-14,85.5,73.2,58.4,67.8,62.7,55.7,94,71,51,30.20,29.97,16,1,16,0.00
2013-5-15,88.0,75.9,69.9,71.6,69.1,66.7,93,81,57,30.07,29.79,21,2,21,0.00
2013-5-16,96.6,80.0,71.3,75.1,70.6,67.3,88,75,44,29.83,29.66,17,2,17,0.00
2013-5-17,96.9,82.0,73.9,75.3,72.1,68.2,90,74,45,29.86,29.74,16,1,16,0.00
2013-5-18,95.5,81.2,72.1,72.9,69.0,64.6,93,69,43,29.88,29.77,20,1,20,0.00
2013-5-19,93.0,81.0,72.2,73.8,70.4,65.8,90,72,51,29.82,29.67,17,1,17,0.00
2013-5-20,93.7,80.5,69.7,73.2,70.5,67.8,96,74,49,29.80,29.65,17,1,17,0.00
2013-5-21,91.2,80.9,70.1,74.1,71.6,65.3,93,75,55,29.82,29.64,16,1,16,0.09
2013-5-22,91.9,78.3,62.6,73.7,66.3,58.0,89,68,53,29.89,29.75,12,0,12,0.00
2013-5-23,94.0,81.4,73.4,73.3,71.7,70.3,92,74,49,29.97,29.81,15,1,15,0.00
2013-5-24,78.9,73.2,68.5,73.5,70.4,66.2,97,91,72,30.07,29.95,14,0,14,1.71
2013-5-25,80.0,72.8,68.7,72.3,70.0,67.5,97,91,74,30.12,29.98,13,0,13,1.57
2013-5-26,85.0,76.7,70.5,76.8,71.3,67.6,96,84,66,30.06,29.93,18,0,18,0.07
2013-5-27,89.8,78.0,70.0,76.8,71.1,67.8,96,81,58,30.00,29.80,17,1,17,0.04
2013-5-28,89.7,79.7,73.1,74.2,71.3,69.8,90,77,56,29.88,29.71,22,2,22,0.00
2013-5-29,85.5,78.1,73.1,75.2,71.9,70.1,92,82,66,29.85,29.67,23,2,23,0.02
2013-5-30,91.0,81.0,74.8,74.9,72.9,71.2,91,77,57,29.80,29.71,15,1,15,0.00
2013-5-31,93.1,81.5,74.4,76.7,73.9,71.9,93,79,54,29.84,29.71,10,1,16,0.00
2013-6-1,96.8,84.0,76.1,76.8,73.9,72.6,90,74,49,29.86,29.74,19,1,19,0.00
2013-6-2,89.9,77.4,65.9,74.1,67.4,61.2,96,74,41,30.01,29.85,15,1,15,0.89
2013-6-3,92.8,78.8,63.9,71.6,66.3,61.2,92,68,45,29.95,29.79,9,0,11,0.00
2013-6-4,93.9,80.7,70.1,72.2,69.5,64.6,95,72,41,29.88,29.75,11,0,11,0.00
2013-6-5,94.2,79.2,69.0,72.0,69.0,65.5,94,74,41,29.85,29.69,11,0,11,0.00
2013-6-6,94.5,81.7,69.2,72.8,69.5,65.9,96,69,43,29.88,29.72,18,1,18,0.00
2013-6-7,81.5,74.2,68.5,69.1,66.2,63.7,92,77,64,29.95,29.84,13,1,13,0.00
2013-6-8,90.4,77.8,64.1,73.1,67.3,57.4,91,71,51,29.90,29.75,13,0,13,0.00
2013-6-9,90.4,79.5,73.8,77.2,72.6,65.8,95,80,57,29.92,29.80,12,0,12,0.03
2013-6-10,95.7,82.3,70.4,76.0,71.9,68.0,94,73,48,29.95,29.86,12,0,12,0.00
2013-6-11,94.2,78.5,70.4,74.8,72.0,66.3,96,82,50,30.00,29.92,29,0,29,0.43
2013-6-12,93.1,78.1,70.3,76.5,72.6,68.2,97,85,53,30.02,29.91,22,1,22,0.08
2013-6-13,91.9,78.9,74.4,77.4,73.8,68.3,95,85,58,30.03,29.90,23,0,23,0.02
2013-6-14,88.3,79.4,74.3,76.4,74.2,71.5,95,85,64,29.97,29.85,8,0,8,0.04
2013-6-15,93.3,82.6,75.8,76.6,74.4,71.2,96,78,52,29.96,29.84,9,0,9,0.00
2013-6-16,96.3,83.8,74.8,76.1,73.5,69.0,95,74,42,29.98,29.85,15,1,15,0.00
2013-6-17,95.7,84.8,76.2,75.8,73.3,67.4,92,71,40,29.96,29.80,12,1,12,0.00
2013-6-18,95.7,84.3,75.4,74.2,71.9,68.9,92,69,43,29.96,29.82,6,0,11,0.00
2013-6-19,96.7,84.7,75.1,74.0,71.9,66.6,92,69,39,29.95,29.84,17,1,17,0.00
2013-6-20,95.3,83.9,73.1,74.2,71.6,67.5,93,69,43,30.02,29.90,17,1,17,0.00
2013-6-21,95.8,84.2,75.3,74.8,70.8,62.2,94,68,38,30.04,29.92,17,1,17,0.00
2013-6-22,96.5,84.4,74.1,74.2,70.8,63.9,93,67,38,30.01,29.85,16,1,16,0.00
2013-6-23,94.5,83.5,75.2,74.2,70.2,61.6,94,67,37,29.94,29.84,18,1,18,0.00
2013-6-24,96.7,84.3,75.2,74.9,71.9,67.3,93,69,41,29.99,29.85,18,2,18,0.00
2013-6-25,98.5,85.2,74.8,74.0,71.5,66.1,92,67,36,29.97,29.82,20,2,20,0.00
2013-6-26,99.3,86.1,75.6,74.5,72.4,68.1,90,66,39,29.93,29.82,16,1,16,0.00
2013-6-27,101.8,87.1,75.4,73.8,69.3,60.8,88,60,29,29.98,29.85,20,0,20,0.00
2013-6-28,103.6,88.2,74.5,74.0,69.1,63.8,92,58,30,29.96,29.76,6,0,6,0.00
2013-6-29,109.3,92.6,74.3,73.1,66.7,60.3,85,48,22,29.84,29.67,15,1,15,0.00
2013-6-30,89.7,80.0,70.0,73.6,67.7,62.2,94,68,40,29.94,29.75,11,1,19,0.24
2013-7-1,93.8,81.2,72.2,67.9,60.4,54.5,77,51,32,29.97,29.83,15,1,15,0.00
2013-7-2,96.2,80.9,64.8,63.0,56.8,51.5,77,47,26,30.05,29.91,13,1,13,0.00
2013-7-3,98.5,83.4,69.1,64.4,52.7,46.9,63,38,19,29.99,29.84,10,0,13,0.00
2013-7-4,97.8,82.6,65.7,70.8,62.7,55.6,92,56,26,29.95,29.83,17,0,17,0.00
2013-7-5,98.0,82.3,68.3,72.4,65.7,59.2,92,62,30,29.94,29.78,13,0,13,0.00
2013-7-6,98.3,84.9,70.4,73.8,68.0,60.8,93,61,30,29.90,29.76,11,0,11,0.00
2013-7-7,98.7,82.3,73.7,76.1,72.8,69.6,94,75,41,29.93,29.83,18,0,18,0.00
2013-7-8,87.4,79.4,74.4,75.2,72.8,68.2,93,81,58,30.08,29.93,18,0,18,0.79
2013-7-9,98.7,83.4,73.2,76.1,73.1,70.1,97,74,40,30.11,29.96,10,0,16,0.04
2013-7-10,98.4,84.4,74.2,75.2,72.6,69.2,95,71,40,30.06,29.88,12,0,12,0.00
2013-7-11,98.3,85.4,74.0,74.6,70.4,65.2,93,64,36,29.97,29.83,12,0,12,0.00
2013-7-12,101.0,86.0,74.2,74.9,69.9,64.0,94,63,32,29.93,29.82,10,0,14,0.00
2013-7-13,102.0,87.6,71.1,73.0,66.6,58.4,90,55,25,29.94,29.79,8,0,11,0.00
2013-7-14,99.9,82.7,73.7,74.0,69.3,64.8,87,66,35,29.86,29.79,22,1,22,0.00
2013-7-15,85.7,75.4,70.1,75.8,72.0,68.4,96,90,68,29.98,29.83,15,0,18,1.83
2013-7-16,84.0,75.1,72.2,79.0,72.5,70.4,96,92,76,30.08,29.96,18,0,18,1.09
2013-7-17,87.7,75.4,71.8,74.7,71.7,70.0,96,89,59,30.14,30.06,16,1,16,0.13
2013-7-18,92.7,80.2,71.6,76.2,71.7,67.2,95,78,49,30.13,29.95,14,0,14,0.01
2013-7-19,96.6,82.7,70.7,76.5,71.4,68.8,97,72,43,30.04,29.85,8,0,8,0.00
2013-7-20,96.8,83.2,72.2,74.8,71.1,65.2,96,70,37,29.97,29.80,9,0,12,0.00
2013-7-21,94.4,83.1,75.1,79.3,74.2,70.4,95,76,49,29.93,29.83,8,0,14,0.07
2013-7-22,97.6,85.4,75.8,76.8,74.3,69.7,95,72,41,29.95,29.84,15,1,15,0.00
2013-7-23,98.2,85.9,76.9,75.3,72.4,66.1,88,67,38,29.98,29.83,16,1,16,0.00
2013-7-24,98.9,85.9,76.3,75.3,72.8,66.7,91,68,37,29.96,29.81,11,0,12,0.00
2013-7-25,100.7,85.9,74.3,75.2,72.4,67.3,94,68,35,29.99,29.89,11,0,11,0.00
2013-7-26,100.0,84.3,74.8,76.7,73.2,69.1,94,72,40,29.99,29.83,14,0,15,0.00
2013-7-27,92.5,83.3,75.0,77.1,73.7,69.4,95,74,54,29.96,29.81,13,1,13,0.05
2013-7-28,98.3,84.9,75.0,76.4,72.0,68.6,86,68,42,29.91,29.79,10,0,10,0.00
2013-7-29,99.0,86.4,76.7,75.1,71.9,66.2,90,65,35,30.00,29.88,14,1,16,0.00
2013-7-30,101.4,86.5,77.1,75.0,71.6,63.9,88,65,30,30.05,29.91,15,1,15,0.00
2013-7-31,103.9,86.4,73.8,73.4,68.9,59.4,93,62,25,30.06,29.88,7,0,14,0.00
2013-8-1,103.2,87.6,74.7,76.2,71.0,66.9,92,62,32,29.99,29.84,10,0,10,0.00
2013-8-2,101.4,86.8,73.3,75.0,69.5,65.2,92,60,32,29.95,29.82,16,1,16,0.00
2013-8-3,100.3,87.0,75.8,74.2,71.8,66.7,91,64,36,29.98,29.85,14,1,14,0.00
2013-8-4,101.0,86.8,76.4,76.2,72.9,68.7,93,67,38,30.02,29.87,16,1,16,0.00
2013-8-5,102.9,87.3,75.0,75.1,71.0,63.8,91,62,31,30.00,29.82,15,1,15,0.00
2013-8-6,102.9,88.1,76.0,74.9,71.1,63.3,91,61,30,29.91,29.75,15,1,15,0.00
2013-8-7,103.1,88.0,76.6,75.3,71.4,63.0,89,62,29,29.89,29.74,13,1,13,0.00
2013-8-8,103.6,87.8,77.2,74.9,70.7,59.5,86,61,25,29.87,29.73,13,1,15,0.00
2013-8-9,103.2,87.2,73.6,74.8,68.7,58.7,93,60,25,29.93,29.80,9,0,9,0.00
2013-8-10,102.7,86.5,73.7,76.5,71.8,68.9,87,64,36,30.00,29.86,16,0,16,0.01
2013-8-11,100.7,84.1,74.8,75.9,72.9,68.5,94,72,38,30.03,29.90,23,0,23,0.04
2013-8-12,96.6,84.4,72.8,74.2,71.4,66.8,94,68,40,30.03,29.89,15,0,15,0.00
2013-8-13,101.5,87.4,75.9,75.6,71.5,64.9,92,64,35,30.01,29.83,13,1,13,0.00
2013-8-14,104.3,87.1,75.3,73.8,70.3,57.9,91,62,24,29.96,29.80,14,1,14,0.00
2013-8-15,102.2,85.7,75.1,74.1,69.5,65.2,88,62,31,29.96,29.83,17,1,17,0.00
2013-8-16,98.8,83.4,72.7,76.7,70.9,63.1,96,69,39,30.00,29.84,24,0,24,0.69
2013-8-17,97.2,83.8,71.8,73.3,66.4,56.8,91,60,31,30.00,29.87,16,1,16,0.00
2013-8-18,98.9,83.9,67.9,70.7,63.7,59.0,81,53,32,30.01,29.91,13,0,13,0.00
2013-8-19,97.1,83.4,68.4,69.3,64.4,59.8,88,56,32,30.02,29.87,11,0,11,0.00
2013-8-20,95.5,81.9,70.4,74.4,69.2,59.8,93,68,32,29.98,29.90,16,1,16,0.00
2013-8-21,96.0,82.0,72.9,75.2,70.7,67.7,91,71,43,30.03,29.93,19,0,19,0.00
2013-8-22,97.7,85.2,71.9,75.8,71.4,67.8,95,67,42,30.04,29.86,11,0,11,0.00
2013-8-23,98.9,86.1,73.7,75.8,70.7,64.7,94,64,35,29.98,29.83,11,0,11,0.00
2013-8-24,100.7,87.3,74.7,73.0,70.2,66.2,85,60,33,30.00,29.86,15,1,15,0.00
2013-8-25,97.7,85.0,73.4,74.1,70.2,67.7,83,63,39,30.03,29.92,17,1,17,0.00
2013-8-26,92.7,78.7,73.7,74.7,72.3,70.5,94,82,52,30.06,29.98,20,1,20,0.18
2013-8-27,90.8,79.7,73.0,76.7,72.4,69.7,95,80,54,30.07,29.98,15,1,15,0.00
2013-8-28,97.5,83.4,72.0,75.6,71.1,67.5,96,70,40,30.08,29.95,10,0,10,0.00
2013-8-29,99.5,85.7,72.7,75.5,70.1,66.2,95,64,36,30.06,29.90,9,0,9,0.00
2013-8-30,103.0,87.9,73.9,73.1,69.4,66.1,87,57,32,29.99,29.82,11,0,11,0.00
2013-8-31,100.8,86.8,73.6,73.4,70.2,68.0,88,61,37,29.91,29.77,10,0,10,0.00
2013-9-1,100.5,86.1,73.2,75.0,70.1,64.7,94,62,36,29.88,29.75,11,0,11,0.00
2013-9-2,100.7,86.5,74.8,75.7,70.8,65.3,94,63,33,29.93,29.77,15,0,15,0.00
2013-9-3,102.3,86.6,70.6,74.0,68.4,63.8,91,59,31,29.96,29.82,10,0,10,0.00
2013-9-4,100.5,85.5,75.9,73.6,70.9,68.6,83,64,38,30.01,29.88,17,0,17,0.01
2013-9-5,99.2,82.5,70.9,75.1,70.5,67.7,93,70,39,30.06,29.93,21,0,21,0.00
2013-9-6,98.0,83.9,71.6,75.4,71.3,67.1,94,69,38,30.05,29.89,13,0,13,0.02
2013-9-7,98.0,83.1,73.7,76.0,72.1,69.1,94,72,41,29.99,29.85,16,1,16,0.00
2013-9-8,91.2,78.8,72.3,75.8,72.1,68.6,95,81,54,29.94,29.84,19,0,19,0.14
2013-9-9,93.7,77.8,71.4,75.2,70.9,68.4,96,81,46,29.95,29.87,22,0,22,0.08
2013-9-10,93.1,77.5,71.8,75.3,71.9,69.3,96,84,49,30.02,29.93,18,1,18,0.07
2013-9-11,94.7,81.0,73.1,75.4,71.2,64.2,96,75,38,30.05,29.94,24,0,24,0.00
2013-9-12,97.3,82.1,71.4,75.9,69.4,59.7,95,70,30,30.02,29.86,11,0,11,0.00
2013-9-13,98.0,84.2,71.5,70.8,66.1,59.8,90,59,30,29.94,29.77,12,0,12,0.00
2013-9-14,96.2,81.6,69.1,73.7,68.0,64.8,92,67,38,29.90,29.79,15,0,16,0.30
2013-9-15,93.5,80.8,71.6,75.8,71.8,69.5,95,76,48,29.97,29.87,13,0,13,0.00
2013-9-16,89.7,77.3,71.8,76.0,72.6,69.3,95,86,62,30.00,29.91,17,1,17,0.62
2013-9-17,89.0,79.3,72.0,77.0,72.5,69.6,96,81,57,30.02,29.90,8,0,13,0.00
2013-9-18,92.9,79.3,72.8,76.3,72.4,70.1,95,81,50,29.97,29.84,11,0,13,0.01
2013-9-19,93.7,80.0,74.6,78.9,74.3,71.6,95,84,54,29.91,29.76,13,0,13,0.16
2013-9-20,80.4,75.6,70.7,78.4,73.6,68.5,97,94,88,29.83,29.71,19,1,19,0.83
2013-9-21,87.9,75.5,65.1,68.9,63.0,52.6,92,68,36,29.89,29.78,17,2,17,0.01
2013-9-22,88.5,73.5,60.2,58.2,52.6,45.6,76,51,24,29.88,29.74,12,1,12,0.00
2013-9-23,92.3,75.1,56.7,60.8,54.6,50.4,83,52,26,29.82,29.72,6,0,6,0.00
2013-9-24,98.0,78.1,64.4,67.5,59.8,55.5,78,57,29,29.90,29.78,11,0,11,0.00
2013-9-25,97.4,81.7,66.7,68.4,62.4,58.1,81,55,32,29.86,29.74,12,0,12,0.00
2013-9-26,93.0,80.0,66.6,74.1,67.9,56.8,94,69,44,29.86,29.76,9,1,13,0.00
2013-9-27,90.7,80.3,73.9,77.7,74.7,71.9,95,84,63,29.87,29.77,14,1,14,0.23
2013-9-28,93.8,80.7,73.8,78.8,75.7,72.0,95,86,55,29.92,29.81,14,0,14,0.48
2013-9-29,80.4,72.8,66.7,72.9,68.5,64.5,97,87,69,30.01,29.90,8,1,24,5.15
2013-9-30,90.8,75.4,61.9,67.3,62.7,58.0,97,69,34,29.93,29.78,8,0,9,0.01
2013-10-1,93.0,79.5,68.3,76.4,72.0,60.5,97,80,52,29.89,29.77,9,0,10,0.01
2013-10-2,92.0,81.7,75.4,75.0,73.0,70.1,94,77,51,29.92,29.81,11,0,11,0.00
2013-10-3,91.3,81.2,74.2,74.4,72.5,69.3,95,77,51,29.90,29.78,12,1,12,0.01
2013-10-4,91.4,79.9,70.5,74.4,71.1,68.9,96,77,51,29.89,29.78,14,1,14,0.00
2013-10-5,93.1,78.1,63.4,72.9,67.0,45.5,95,71,45,30.00,29.83,24,1,24,0.00
2013-10-6,83.7,67.4,53.6,55.5,48.2,40.3,93,55,23,30.12,29.98,17,1,17,0.34
2013-10-7,89.5,69.6,53.0,54.3,46.4,40.9,79,49,20,30.16,30.01,9,0,9,0.00
2013-10-8,86.2,68.8,52.7,55.7,50.3,47.0,85,55,30,30.07,29.95,9,0,9,0.00
2013-10-9,85.7,69.6,53.8,64.6,58.1,50.3,96,69,44,30.04,29.92,7,0,10,0.00
2013-10-10,87.5,73.7,61.3,69.6,65.0,59.0,95,76,50,30.00,29.84,14,0,14,0.00
2013-10-11,91.8,79.0,70.7,75.5,72.1,65.9,91,80,56,29.90,29.78,13,1,13,0.00
2013-10-12,93.0,81.1,75.4,76.1,74.2,71.1,94,81,52,29.96,29.85,11,0,11,0.02
2013-10-13,76.9,72.5,66.0,74.4,70.8,64.1,97,95,87,30.12,29.96,21,1,21,0.77
2013-10-14,84.7,75.8,71.9,75.6,72.2,70.3,97,89,66,30.05,29.88,7,0,11,0.08
2013-10-15,87.6,76.5,64.6,72.8,69.9,59.4,95,81,57,29.95,29.83,16,1,16,0.00
2013-10-16,64.6,59.1,55.9,59.5,56.8,54.2,95,92,84,30.07,29.89,14,1,14,0.87
2013-10-17,75.9,63.5,52.8,58.3,52.9,48.7,93,71,45,30.12,29.96,9,0,9,0.00
2013-10-18,74.5,65.3,57.1,65.9,60.4,52.1,95,84,73,29.98,29.85,7,0,7,0.04
2013-10-19,72.8,60.9,48.9,63.9,47.9,40.6,96,66,32,30.17,29.96,18,2,18,0.00
2013-10-20,77.6,59.7,44.3,54.7,47.2,41.3,93,67,38,30.09,29.91,11,0,11,0.00
2013-10-21,81.4,68.9,58.8,70.0,62.5,53.2,95,81,63,30.03,29.87,15,0,16,0.00
2013-10-22,80.5,65.6,52.2,56.8,47.8,40.0,85,58,25,30.15,30.03,15,1,15,0.00
2013-10-23,83.9,64.6,48.1,50.2,45.6,41.8,80,55,25,30.18,30.08,8,0,8,0.00
2013-10-24,83.0,66.3,51.5,56.1,50.9,45.0,85,61,33,30.22,30.11,9,0,9,0.00
2013-10-25,81.4,67.3,53.2,63.8,58.4,50.6,96,75,51,30.29,30.16,12,0,12,0.00
2013-10-26,83.2,71.2,63.3,67.3,63.7,61.2,95,79,51,30.20,30.04,16,1,16,0.00
2013-10-27,79.5,70.2,63.7,70.1,65.8,61.3,96,86,70,30.08,29.96,11,0,11,0.00
2013-10-28,83.9,74.0,67.0,70.3,67.2,63.6,96,80,60,30.06,29.93,14,1,14,0.00
2013-10-29,84.8,75.8,69.5,72.2,69.0,66.3,93,80,59,30.05,29.92,11,0,11,0.00
2013-10-30,84.8,77.4,73.1,76.3,73.0,69.3,95,87,69,30.00,29.76,7,0,7,0.06
2013-10-31,86.5,75.0,58.3,73.5,60.0,43.1,97,66,23,29.86,29.75,15,2,19,1.06
2013-11-1,86.8,67.1,50.3,62.1,49.3,39.0,86,57,22,30.04,29.81,13,0,13,0.00
2013-11-2,78.0,65.3,51.8,46.5,41.5,36.5,71,45,23,30.28,30.04,13,0,13,0.00
2013-11-3,73.3,59.2,43.3,54.8,42.8,37.1,82,58,28,30.21,30.01,4,0,4,0.00
2013-11-4,71.7,64.3,58.9,63.5,58.8,54.2,93,83,70,30.05,29.93,0,0,0,0.00
2013-11-5,80.7,71.4,64.3,70.2,66.9,62.5,97,87,64,29.99,29.86,1,0,4,0.00
2013-11-6,82.3,66.6,54.1,71.7,59.2,42.6,94,78,57,30.29,29.93,13,0,13,0.00
2013-11-7,67.8,55.3,47.3,42.6,38.8,32.8,71,55,30,30.44,30.29,19,1,19,0.00
2013-11-8,65.3,58.0,50.5,48.3,42.6,36.1,74,58,37,30.38,30.17,12,0,12,0.00
2013-11-9,71.1,61.7,54.6,59.6,54.5,47.0,91,78,64,30.18,30.10,9,0,9,0.05
2013-11-10,68.1,63.8,61.7,59.7,58.1,55.8,89,82,69,30.28,30.15,7,0,7,0.00
2013-11-11,80.0,66.6,57.7,59.0,55.4,52.5,84,69,45,30.25,30.13,6,0,6,0.00
2013-11-12,67.6,56.8,44.4,56.3,48.0,27.9,85,73,52,30.61,30.21,13,2,21,0.00
2013-11-13,60.4,45.6,35.6,31.8,27.7,25.6,70,51,27,30.64,30.41,14,2,14,0.00
2013-11-14,64.9,48.9,33.3,46.7,35.7,27.0,87,63,35,30.41,30.06,10,0,10,0.00
2013-11-15,79.4,63.9,48.3,60.1,54.3,45.5,95,73,50,30.06,29.85,13,0,13,0.00
2013-11-16,80.9,71.7,61.5,71.2,66.7,58.5,96,85,68,29.91,29.72,16,1,16,0.00
2013-11-17,91.5,77.0,67.1,72.1,69.5,63.4,93,79,50,29.91,29.76,8,0,8,0.00
2013-11-18,79.0,69.3,61.5,68.6,64.0,59.3,96,84,63,30.07,29.90,9,0,9,0.01
2013-11-19,71.9,64.1,56.0,60.5,52.1,46.0,85,66,48,30.12,29.98,10,0,10,0.00
2013-11-20,73.3,65.5,58.7,67.3,60.1,53.3,95,83,70,30.00,29.86,7,0,9,0.00
2013-11-21,84.0,74.1,69.0,73.0,70.4,67.3,96,89,68,30.02,29.90,10,0,10,0.03
2013-11-22,73.4,47.4,36.5,71.0,44.8,34.1,94,91,76,30.38,30.01,17,3,22,0.20
2013-11-23,42.8,39.7,37.0,40.5,37.0,34.6,98,90,83,30.46,30.34,20,3,20,0.03
2013-11-24,42.8,39.1,34.9,39.9,35.6,33.3,94,87,74,30.48,30.32,17,1,17,0.36
2013-11-25,41.3,38.1,34.9,39.5,36.4,33.3,96,93,88,30.35,30.09,12,1,16,0.45
2013-11-26,52.5,43.5,38.6,38.2,34.6,29.2,92,72,53,30.37,30.11,25,4,25,0.00
2013-11-27,56.7,43.9,34.9,30.2,26.2,22.6,72,52,28,30.50,30.35,15,1,15,0.00
2013-11-28,59.1,42.6,32.2,32.5,27.7,23.6,86,60,26,30.46,30.35,1,0,2,0.00
2013-11-29,65.0,49.8,36.1,51.3,43.5,26.8,95,80,61,30.50,30.34,9,0,9,0.00
2013-11-30,69.5,58.1,48.7,58.4,51.8,44.7,92,80,66,30.39,30.17,6,0,10,0.00
2013-12-1,73.8,62.3,55.4,62.0,57.4,52.5,94,85,65,30.19,29.95,9,0,9,0.00
2013-12-2,81.3,66.8,57.2,61.9,57.1,52.8,94,74,43,29.95,29.67,11,0,11,0.00
2013-12-3,87.2,66.3,50.8,61.5,52.2,44.9,96,67,25,29.71,29.59,11,0,11,0.00
2013-12-4,76.6,64.0,54.0,68.1,60.4,51.8,97,88,69,29.78,29.66,10,0,10,0.01
2013-12-5,67.6,49.3,34.4,66.7,44.4,28.5,97,83,69,30.07,29.76,21,3,21,0.04
2013-12-6,40.5,34.4,29.9,33.9,29.9,24.2,93,84,72,30.43,30.03,21,4,21,0.07
2013-12-7,34.3,30.4,27.3,27.0,24.0,20.5,89,77,69,30.47,30.30,15,2,15,0.00
2013-12-8,51.5,39.0,29.3,41.1,34.1,26.7,91,83,67,30.31,30.05,1,0,4,0.00
2013-12-9,44.1,40.7,35.7,40.7,38.9,32.3,95,93,86,30.38,30.07,17,2,17,0.08
2013-12-10,52.1,38.9,29.6,32.2,26.9,24.3,89,65,34,30.52,30.35,13,1,14,0.00
2013-12-11,63.1,45.5,29.7,33.6,30.3,24.7,89,59,30,30.54,30.34,4,0,4,0.00
2013-12-12,42.7,40.6,38.8,33.3,32.2,30.9,74,72,69,30.54,30.53,0,0,0,0.00
2013-12-13,50.6,47.3,44.2,49.5,42.2,36.2,96,83,70,30.33,29.90,4,0,10,0.05
2013-12-14,60.0,50.2,43.1,49.2,41.2,30.8,96,73,49,30.32,29.91,9,4,21,0.00
2013-12-15,67.0,47.4,30.3,34.4,30.7,25.6,87,56,28,30.42,30.28,6,1,16,0.00
2013-12-16,69.2,48.2,33.8,35.3,31.5,27.9,82,56,27,30.34,30.20,4,0,11,0.00
2013-12-17,74.3,53.3,38.7,47.3,38.8,30.8,91,62,30,30.34,30.22,7,0,7,0.00
2013-12-18,72.5,55.7,41.6,55.8,46.9,34.9,96,74,46,30.29,30.06,13,0,13,0.00
2013-12-19,78.5,65.2,54.2,63.1,58.8,50.1,93,81,57,30.06,29.77,19,1,19,0.00
2013-12-20,74.4,68.7,63.2,67.2,64.7,61.0,94,87,76,29.83,29.58,18,1,18,0.00
2013-12-21,74.2,63.5,45.9,67.5,54.8,39.8,96,77,30,29.83,29.51,21,1,21,0.30
2013-12-22,61.8,50.0,39.5,44.9,38.8,30.5,86,66,48,30.35,29.82,17,2,17,0.00
2013-12-23,63.4,44.2,30.7,31.4,29.0,26.2,84,59,26,30.54,30.35,9,0,10,0.00
2013-12-24,62.0,44.4,29.6,36.6,28.8,24.2,92,60,24,30.54,30.29,10,0,10,0.00
2013-12-25,58.9,48.8,39.1,48.7,43.7,35.6,94,83,68,30.38,30.24,8,0,8,0.00
2013-12-26,52.0,47.9,43.5,47.0,40.5,36.7,90,76,66,30.43,30.32,15,0,15,0.01
2013-12-27,57.5,49.2,44.7,48.1,44.6,41.1,93,85,67,30.44,30.32,7,0,7,0.22
2013-12-28,58.1,50.4,43.4,47.4,43.2,39.2,91,77,54,30.32,30.03,5,0,6,0.00
2013-12-29,66.5,49.5,37.0,52.4,43.4,31.4,97,81,58,30.25,29.98,20,2,20,0.00
2013-12-30,43.9,38.9,35.9,31.8,29.4,26.6,81,69,57,30.42,30.21,17,1,17,0.00
2013-12-31,52.5,41.5,35.8,32.5,30.7,28.0,85,67,40,30.48,30.26,3,0,6,0.00
2014-1-1,59.0,49.2,37.2,49.6,41.3,31.2,88,74,63,30.26,30.03,8,0,9,0.00
2014-1-2,54.3,44.8,31.3,48.1,31.6,24.7,92,62,38,30.46,30.09,27,4,27,0.00